sensor_id;sensor_type;location;lat;lon;timestamp;pressure;altitude;pressure_sealevel;temperature;humidity
81990;BME280;71485;51.638;-0.182;2024-02-16T00:00:31;99547.59;;;25.47;29.33
81990;BME280;71485;51.638;-0.182;2024-02-16T00:03:00;99555.92;;;25.46;29.34
81990;BME280;71485;51.638;-0.182;2024-02-16T00:05:22;99550.38;;;25.40;29.39
81990;BME280;71485;51.638;-0.182;2024-02-16T00:07:47;99552.77;;;25.61;29.43
81990;BME280;71485;51.638;-0.182;2024-02-16T00:10:14;99559.71;;;25.58;29.46
81990;BME280;71485;51.638;-0.182;2024-02-16T00:12:39;99559.05;;;25.59;29.44
81990;BME280;71485;51.638;-0.182;2024-02-16T00:15:04;99557.75;;;25.56;29.46
81990;BME280;71485;51.638;-0.182;2024-02-16T00:17:33;99559.30;;;25.52;29.51
81990;BME280;71485;51.638;-0.182;2024-02-16T00:19:56;99562.26;;;25.53;29.50
81990;BME280;71485;51.638;-0.182;2024-02-16T00:22:21;99561.76;;;25.51;29.52
81990;BME280;71485;51.638;-0.182;2024-02-16T00:24:48;99562.45;;;25.25;29.53
81990;BME280;71485;51.638;-0.182;2024-02-16T00:27:12;99563.21;;;25.03;29.49
81990;BME280;71485;51.638;-0.182;2024-02-16T00:29:38;99565.31;;;25.52;29.47
81990;BME280;71485;51.638;-0.182;2024-02-16T00:32:03;99565.51;;;25.45;29.55
81990;BME280;71485;51.638;-0.182;2024-02-16T00:34:29;99568.75;;;25.22;29.53
81990;BME280;71485;51.638;-0.182;2024-02-16T00:36:54;99568.19;;;25.19;29.59
81990;BME280;71485;51.638;-0.182;2024-02-16T00:39:21;99568.18;;;25.40;29.62
81990;BME280;71485;51.638;-0.182;2024-02-16T00:41:45;99565.71;;;25.61;29.63
81990;BME280;71485;51.638;-0.182;2024-02-16T00:44:11;99563.00;;;25.34;29.65
81990;BME280;71485;51.638;-0.182;2024-02-16T00:46:42;99560.04;;;25.09;29.65
81990;BME280;71485;51.638;-0.182;2024-02-16T00:49:03;99559.01;;;25.11;29.63
81990;BME280;71485;51.638;-0.182;2024-02-16T00:51:28;99559.19;;;25.30;29.68
81990;BME280;71485;51.638;-0.182;2024-02-16T00:53:54;99552.45;;;25.30;29.67
81990;BME280;71485;51.638;-0.182;2024-02-16T00:56:21;99549.40;;;25.40;29.56
81990;BME280;71485;51.638;-0.182;2024-02-16T00:58:45;99544.60;;;25.36;29.60
81990;BME280;71485;51.638;-0.182;2024-02-16T01:01:10;99545.22;;;25.35;29.60
81990;BME280;71485;51.638;-0.182;2024-02-16T01:03:39;99552.12;;;25.38;29.54
81990;BME280;71485;51.638;-0.182;2024-02-16T01:06:01;99558.68;;;25.39;29.54
81990;BME280;71485;51.638;-0.182;2024-02-16T01:08:27;99566.21;;;25.33;29.59
81990;BME280;71485;51.638;-0.182;2024-02-16T01:10:53;99568.20;;;25.01;29.68
81990;BME280;71485;51.638;-0.182;2024-02-16T01:13:18;99563.70;;;25.23;29.69
81990;BME280;71485;51.638;-0.182;2024-02-16T01:15:44;99567.45;;;24.96;29.73
81990;BME280;71485;51.638;-0.182;2024-02-16T01:18:09;99563.09;;;24.94;29.72
81990;BME280;71485;51.638;-0.182;2024-02-16T01:20:34;99563.36;;;25.16;29.73
81990;BME280;71485;51.638;-0.182;2024-02-16T01:23:00;99562.32;;;25.15;29.73
81990;BME280;71485;51.638;-0.182;2024-02-16T01:25:29;99560.54;;;25.39;29.73
81990;BME280;71485;51.638;-0.182;2024-02-16T01:27:51;99562.04;;;25.14;29.74
81990;BME280;71485;51.638;-0.182;2024-02-16T01:30:17;99565.89;;;25.39;29.72
81990;BME280;71485;51.638;-0.182;2024-02-16T01:32:42;99563.64;;;24.86;29.77
81990;BME280;71485;51.638;-0.182;2024-02-16T01:35:08;99565.44;;;25.07;29.80
81990;BME280;71485;51.638;-0.182;2024-02-16T01:37:34;99572.51;;;25.58;29.78
81990;BME280;71485;51.638;-0.182;2024-02-16T01:40:04;99574.90;;;25.08;29.80
81990;BME280;71485;51.638;-0.182;2024-02-16T01:42:25;99578.59;;;25.08;29.79
81990;BME280;71485;51.638;-0.182;2024-02-16T01:44:50;99577.34;;;25.05;29.82
81990;BME280;71485;51.638;-0.182;2024-02-16T01:47:16;99576.85;;;25.30;29.79
81990;BME280;71485;51.638;-0.182;2024-02-16T01:49:42;99580.41;;;24.55;29.83
81990;BME280;71485;51.638;-0.182;2024-02-16T01:52:07;99582.22;;;25.02;29.85
81990;BME280;71485;51.638;-0.182;2024-02-16T01:54:35;99582.43;;;25.03;29.81
81990;BME280;71485;51.638;-0.182;2024-02-16T01:56:59;99589.00;;;25.02;29.84
81990;BME280;71485;51.638;-0.182;2024-02-16T01:59:24;99590.52;;;24.96;29.88
81990;BME280;71485;51.638;-0.182;2024-02-16T02:01:49;99588.12;;;24.94;29.90
81990;BME280;71485;51.638;-0.182;2024-02-16T02:04:15;99590.51;;;25.18;29.92
81990;BME280;71485;51.638;-0.182;2024-02-16T02:06:41;99595.71;;;24.69;29.93
81990;BME280;71485;51.638;-0.182;2024-02-16T02:09:06;99593.00;;;24.92;29.92
81990;BME280;71485;51.638;-0.182;2024-02-16T02:11:33;99591.45;;;25.40;29.92
81990;BME280;71485;51.638;-0.182;2024-02-16T02:13:57;99592.00;;;24.90;29.95
81990;BME280;71485;51.638;-0.182;2024-02-16T02:16:23;99587.75;;;24.89;29.95
81990;BME280;71485;51.638;-0.182;2024-02-16T02:18:48;99591.91;;;24.87;29.98
81990;BME280;71485;51.638;-0.182;2024-02-16T02:21:14;99594.07;;;24.87;29.96
81990;BME280;71485;51.638;-0.182;2024-02-16T02:23:42;99596.04;;;24.65;29.93
81990;BME280;71485;51.638;-0.182;2024-02-16T02:26:05;99593.66;;;24.88;29.95
81990;BME280;71485;51.638;-0.182;2024-02-16T02:28:30;99600.63;;;25.09;29.97
81990;BME280;71485;51.638;-0.182;2024-02-16T02:30:59;99600.12;;;24.86;29.96
81990;BME280;71485;51.638;-0.182;2024-02-16T02:33:24;99601.12;;;24.89;29.95
81990;BME280;71485;51.638;-0.182;2024-02-16T02:35:48;99602.43;;;24.61;29.97
81990;BME280;71485;51.638;-0.182;2024-02-16T02:38:15;99612.33;;;24.88;29.92
81990;BME280;71485;51.638;-0.182;2024-02-16T02:40:43;99618.74;;;24.86;29.95
81990;BME280;71485;51.638;-0.182;2024-02-16T02:43:05;99624.89;;;25.13;29.94
81990;BME280;71485;51.638;-0.182;2024-02-16T02:45:32;99622.03;;;24.87;29.97
81990;BME280;71485;51.638;-0.182;2024-02-16T02:47:58;99618.98;;;24.87;29.99
81990;BME280;71485;51.638;-0.182;2024-02-16T02:50:24;99624.41;;;24.87;29.98
81990;BME280;71485;51.638;-0.182;2024-02-16T02:52:47;99625.98;;;24.83;30.02
81990;BME280;71485;51.638;-0.182;2024-02-16T02:55:12;99628.98;;;24.82;30.02
81990;BME280;71485;51.638;-0.182;2024-02-16T02:57:41;99637.42;;;24.83;30.02
81990;BME280;71485;51.638;-0.182;2024-02-16T03:00:05;99631.28;;;24.81;30.03
81990;BME280;71485;51.638;-0.182;2024-02-16T03:02:31;99626.16;;;24.84;30.00
81990;BME280;71485;51.638;-0.182;2024-02-16T03:04:55;99635.35;;;24.84;30.01
81990;BME280;71485;51.638;-0.182;2024-02-16T03:07:20;99641.58;;;25.06;30.03
81990;BME280;71485;51.638;-0.182;2024-02-16T03:09:46;99646.45;;;24.78;30.09
81990;BME280;71485;51.638;-0.182;2024-02-16T03:12:15;99650.40;;;24.77;30.10
81990;BME280;71485;51.638;-0.182;2024-02-16T03:14:38;99656.42;;;25.26;30.10
81990;BME280;71485;51.638;-0.182;2024-02-16T03:17:02;99662.19;;;24.98;30.15
81990;BME280;71485;51.638;-0.182;2024-02-16T03:19:29;99665.05;;;24.79;30.08
81990;BME280;71485;51.638;-0.182;2024-02-16T03:21:54;99663.71;;;24.76;30.13
81990;BME280;71485;51.638;-0.182;2024-02-16T03:24:23;99660.65;;;24.76;30.14
81990;BME280;71485;51.638;-0.182;2024-02-16T03:26:45;99662.97;;;24.75;30.16
81990;BME280;71485;51.638;-0.182;2024-02-16T03:29:10;99663.77;;;24.74;30.17
81990;BME280;71485;51.638;-0.182;2024-02-16T03:31:36;99665.33;;;24.71;30.23
81990;BME280;71485;51.638;-0.182;2024-02-16T03:34:02;99666.68;;;24.92;30.26
81990;BME280;71485;51.638;-0.182;2024-02-16T03:36:26;99668.53;;;24.68;30.24
81990;BME280;71485;51.638;-0.182;2024-02-16T03:38:58;99669.26;;;24.92;30.25
81990;BME280;71485;51.638;-0.182;2024-02-16T03:41:19;99674.44;;;24.68;30.28
81990;BME280;71485;51.638;-0.182;2024-02-16T03:43:43;99674.44;;;24.64;30.35
81990;BME280;71485;51.638;-0.182;2024-02-16T03:46:09;99684.28;;;25.10;30.39
81990;BME280;71485;51.638;-0.182;2024-02-16T03:48:42;99692.56;;;25.12;30.38
81990;BME280;71485;51.638;-0.182;2024-02-16T03:51:02;99706.15;;;24.62;30.41
81990;BME280;71485;51.638;-0.182;2024-02-16T03:53:26;99706.25;;;24.84;30.41
81990;BME280;71485;51.638;-0.182;2024-02-16T03:55:51;99714.01;;;24.62;30.38
81990;BME280;71485;51.638;-0.182;2024-02-16T03:58:17;99729.26;;;24.60;30.39
81990;BME280;71485;51.638;-0.182;2024-02-16T04:00:42;99747.21;;;24.62;30.37
81990;BME280;71485;51.638;-0.182;2024-02-16T04:03:09;99758.16;;;25.07;30.40
81990;BME280;71485;51.638;-0.182;2024-02-16T04:05:33;99760.77;;;24.57;30.40
81990;BME280;71485;51.638;-0.182;2024-02-16T04:07:59;99759.14;;;25.04;30.40
81990;BME280;71485;51.638;-0.182;2024-02-16T04:10:28;99757.82;;;25.05;30.39
81990;BME280;71485;51.638;-0.182;2024-02-16T04:12:50;99768.27;;;24.59;30.37
81990;BME280;71485;51.638;-0.182;2024-02-16T04:15:16;99777.59;;;24.81;30.37
81990;BME280;71485;51.638;-0.182;2024-02-16T04:17:42;99783.90;;;24.33;30.37
81990;BME280;71485;51.638;-0.182;2024-02-16T04:20:08;99790.50;;;24.80;30.39
81990;BME280;71485;51.638;-0.182;2024-02-16T04:22:33;99792.16;;;25.02;30.39
81990;BME280;71485;51.638;-0.182;2024-02-16T04:24:59;99784.76;;;24.78;30.39
81990;BME280;71485;51.638;-0.182;2024-02-16T04:27:24;99778.34;;;24.77;30.41
81990;BME280;71485;51.638;-0.182;2024-02-16T04:29:50;99777.58;;;24.75;30.46
81990;BME280;71485;51.638;-0.182;2024-02-16T04:32:15;99783.46;;;24.49;30.52
81990;BME280;71485;51.638;-0.182;2024-02-16T04:34:40;99793.11;;;24.49;30.52
81990;BME280;71485;51.638;-0.182;2024-02-16T04:37:06;99800.14;;;24.70;30.53
81990;BME280;71485;51.638;-0.182;2024-02-16T04:39:32;99804.03;;;24.51;30.49
81990;BME280;71485;51.638;-0.182;2024-02-16T04:41:57;99806.06;;;24.73;30.52
81990;BME280;71485;51.638;-0.182;2024-02-16T04:44:23;99808.34;;;24.71;30.53
81990;BME280;71485;51.638;-0.182;2024-02-16T04:46:51;99804.98;;;24.46;30.54
81990;BME280;71485;51.638;-0.182;2024-02-16T04:49:16;99807.30;;;24.70;30.53
81990;BME280;71485;51.638;-0.182;2024-02-16T04:51:40;99809.94;;;24.45;30.55
81990;BME280;71485;51.638;-0.182;2024-02-16T04:54:06;99808.08;;;24.43;30.57
81990;BME280;71485;51.638;-0.182;2024-02-16T04:56:30;99797.39;;;24.46;30.52
81990;BME280;71485;51.638;-0.182;2024-02-16T04:58:56;99790.26;;;24.94;30.49
81990;BME280;71485;51.638;-0.182;2024-02-16T05:01:22;99791.05;;;24.68;30.48
81990;BME280;71485;51.638;-0.182;2024-02-16T05:03:49;99798.08;;;24.45;30.49
81990;BME280;71485;51.638;-0.182;2024-02-16T05:06:14;99793.04;;;24.69;30.47
81990;BME280;71485;51.638;-0.182;2024-02-16T05:08:39;99794.10;;;24.45;30.45
81990;BME280;71485;51.638;-0.182;2024-02-16T05:11:05;99818.25;;;24.44;30.47
81990;BME280;71485;51.638;-0.182;2024-02-16T05:13:30;99837.22;;;24.92;30.47
81990;BME280;71485;51.638;-0.182;2024-02-16T05:15:56;99846.61;;;24.64;30.54
81990;BME280;71485;51.638;-0.182;2024-02-16T05:18:22;99854.45;;;24.65;30.53
81990;BME280;71485;51.638;-0.182;2024-02-16T05:20:46;99859.75;;;24.41;30.52
81990;BME280;71485;51.638;-0.182;2024-02-16T05:23:12;99867.55;;;24.39;30.51
81990;BME280;71485;51.638;-0.182;2024-02-16T05:25:39;99873.37;;;24.62;30.52
81990;BME280;71485;51.638;-0.182;2024-02-16T05:28:04;99873.71;;;24.58;30.56
81990;BME280;71485;51.638;-0.182;2024-02-16T05:30:30;99885.49;;;24.84;30.50
81990;BME280;71485;51.638;-0.182;2024-02-16T05:32:55;99894.04;;;24.12;31.30
81990;BME280;71485;51.638;-0.182;2024-02-16T05:35:20;99891.71;;;24.06;31.40
81990;BME280;71485;51.638;-0.182;2024-02-16T05:37:47;99892.36;;;24.26;31.56
81990;BME280;71485;51.638;-0.182;2024-02-16T05:40:12;99895.95;;;24.17;31.55
81990;BME280;71485;51.638;-0.182;2024-02-16T05:42:37;99900.71;;;24.71;31.24
81990;BME280;71485;51.638;-0.182;2024-02-16T05:45:04;99903.79;;;24.41;31.46
81990;BME280;71485;51.638;-0.182;2024-02-16T05:47:28;99902.11;;;24.51;31.37
81990;BME280;71485;51.638;-0.182;2024-02-16T05:49:55;99910.25;;;24.25;31.35
81990;BME280;71485;51.638;-0.182;2024-02-16T05:52:19;99911.43;;;24.28;31.18
81990;BME280;71485;51.638;-0.182;2024-02-16T05:54:48;99911.88;;;24.28;31.18
81990;BME280;71485;51.638;-0.182;2024-02-16T05:57:10;99908.35;;;24.37;30.96
81990;BME280;71485;51.638;-0.182;2024-02-16T05:59:36;99904.70;;;24.68;30.78
81990;BME280;71485;51.638;-0.182;2024-02-16T06:02:01;99910.49;;;24.95;30.68
81990;BME280;71485;51.638;-0.182;2024-02-16T06:04:29;99916.02;;;24.68;30.72
81990;BME280;71485;51.638;-0.182;2024-02-16T06:06:53;99918.29;;;24.45;30.63
81990;BME280;71485;51.638;-0.182;2024-02-16T06:09:18;99924.44;;;24.67;30.81
81990;BME280;71485;51.638;-0.182;2024-02-16T06:11:45;99940.08;;;24.48;30.68
81990;BME280;71485;51.638;-0.182;2024-02-16T06:14:09;99947.28;;;24.44;30.75
81990;BME280;71485;51.638;-0.182;2024-02-16T06:16:36;99954.19;;;24.54;30.54
81990;BME280;71485;51.638;-0.182;2024-02-16T06:19:00;99961.24;;;24.73;30.64
81990;BME280;71485;51.638;-0.182;2024-02-16T06:21:26;99961.34;;;24.72;30.43
81990;BME280;71485;51.638;-0.182;2024-02-16T06:23:52;99958.26;;;24.43;30.40
81990;BME280;71485;51.638;-0.182;2024-02-16T06:26:17;99958.51;;;24.67;30.23
81990;BME280;71485;51.638;-0.182;2024-02-16T06:28:42;99960.86;;;24.43;30.17
81990;BME280;71485;51.638;-0.182;2024-02-16T06:31:09;99965.12;;;24.37;30.23
81990;BME280;71485;51.638;-0.182;2024-02-16T06:33:36;99970.00;;;24.61;30.21
81990;BME280;71485;51.638;-0.182;2024-02-16T06:35:59;99977.43;;;24.39;30.17
81990;BME280;71485;51.638;-0.182;2024-02-16T06:38:26;99982.48;;;24.40;30.14
81990;BME280;71485;51.638;-0.182;2024-02-16T06:40:55;99986.51;;;24.43;30.10
81990;BME280;71485;51.638;-0.182;2024-02-16T06:43:16;99986.96;;;24.60;29.88
81990;BME280;71485;51.638;-0.182;2024-02-16T06:45:42;99986.76;;;24.30;29.92
81990;BME280;71485;51.638;-0.182;2024-02-16T06:48:07;99997.36;;;24.49;29.96
81990;BME280;71485;51.638;-0.182;2024-02-16T06:50:35;100000.34;;;24.44;29.97
81990;BME280;71485;51.638;-0.182;2024-02-16T06:53:00;100006.02;;;24.73;29.92
81990;BME280;71485;51.638;-0.182;2024-02-16T06:55:24;100006.27;;;24.72;29.91
81990;BME280;71485;51.638;-0.182;2024-02-16T06:57:49;100007.10;;;24.44;29.92
81990;BME280;71485;51.638;-0.182;2024-02-16T07:00:16;100017.70;;;24.46;29.89
81990;BME280;71485;51.638;-0.182;2024-02-16T07:02:42;100024.82;;;24.21;29.87
81990;BME280;71485;51.638;-0.182;2024-02-16T07:05:07;100030.64;;;24.43;29.89
81990;BME280;71485;51.638;-0.182;2024-02-16T07:07:32;100038.03;;;24.93;29.83
81990;BME280;71485;51.638;-0.182;2024-02-16T07:09:58;100047.11;;;24.60;29.97
81990;BME280;71485;51.638;-0.182;2024-02-16T07:12:23;100046.98;;;24.71;30.05
81990;BME280;71485;51.638;-0.182;2024-02-16T07:14:48;100051.79;;;24.41;29.87
81990;BME280;71485;51.638;-0.182;2024-02-16T07:17:14;100063.74;;;24.67;29.79
81990;BME280;71485;51.638;-0.182;2024-02-16T07:19:40;100068.97;;;24.65;29.85
81990;BME280;71485;51.638;-0.182;2024-02-16T07:22:06;100074.91;;;24.59;29.98
81990;BME280;71485;51.638;-0.182;2024-02-16T07:24:31;100077.94;;;24.87;29.80
81990;BME280;71485;51.638;-0.182;2024-02-16T07:26:58;100080.29;;;24.49;29.89
81990;BME280;71485;51.638;-0.182;2024-02-16T07:29:22;100085.16;;;24.73;29.87
81990;BME280;71485;51.638;-0.182;2024-02-16T07:31:47;100087.80;;;24.48;29.99
81990;BME280;71485;51.638;-0.182;2024-02-16T07:34:13;100091.12;;;24.70;29.74
81990;BME280;71485;51.638;-0.182;2024-02-16T07:36:39;100100.26;;;24.65;29.75
81990;BME280;71485;51.638;-0.182;2024-02-16T07:39:05;100112.18;;;24.80;29.77
81990;BME280;71485;51.638;-0.182;2024-02-16T07:41:29;100117.52;;;24.52;29.79
81990;BME280;71485;51.638;-0.182;2024-02-16T07:43:55;100129.67;;;24.48;29.82
81990;BME280;71485;51.638;-0.182;2024-02-16T07:46:21;100134.92;;;24.44;29.84
81990;BME280;71485;51.638;-0.182;2024-02-16T07:48:49;100142.52;;;24.22;29.81
81990;BME280;71485;51.638;-0.182;2024-02-16T07:51:12;100143.87;;;24.42;29.83
81990;BME280;71485;51.638;-0.182;2024-02-16T07:53:40;100150.98;;;24.66;29.84
81990;BME280;71485;51.638;-0.182;2024-02-16T07:56:03;100155.31;;;24.68;29.81
81990;BME280;71485;51.638;-0.182;2024-02-16T07:58:28;100160.06;;;24.43;29.84
81990;BME280;71485;51.638;-0.182;2024-02-16T08:00:54;100165.04;;;24.42;29.89
81990;BME280;71485;51.638;-0.182;2024-02-16T08:03:22;100169.45;;;24.97;29.89
81990;BME280;71485;51.638;-0.182;2024-02-16T08:05:45;100177.73;;;24.48;29.96
81990;BME280;71485;51.638;-0.182;2024-02-16T08:08:12;100183.78;;;24.72;30.02
81990;BME280;71485;51.638;-0.182;2024-02-16T08:10:38;100185.82;;;24.47;30.12
81990;BME280;71485;51.638;-0.182;2024-02-16T08:13:04;100189.65;;;24.46;30.15
81990;BME280;71485;51.638;-0.182;2024-02-16T08:15:28;100193.65;;;24.47;30.18
81990;BME280;71485;51.638;-0.182;2024-02-16T08:17:55;100204.67;;;24.45;30.19
81990;BME280;71485;51.638;-0.182;2024-02-16T08:20:21;100208.62;;;24.71;30.15
81990;BME280;71485;51.638;-0.182;2024-02-16T08:22:44;100215.72;;;24.45;30.14
81990;BME280;71485;51.638;-0.182;2024-02-16T08:25:11;100220.36;;;24.43;30.13
81990;BME280;71485;51.638;-0.182;2024-02-16T08:27:36;100223.74;;;24.71;30.07
81990;BME280;71485;51.638;-0.182;2024-02-16T08:30:01;100230.21;;;24.47;30.05
81990;BME280;71485;51.638;-0.182;2024-02-16T08:32:26;100234.99;;;24.46;30.02
81990;BME280;71485;51.638;-0.182;2024-02-16T08:34:53;100232.47;;;24.43;30.04
81990;BME280;71485;51.638;-0.182;2024-02-16T08:37:18;100239.55;;;24.47;29.97
81990;BME280;71485;51.638;-0.182;2024-02-16T08:39:45;100241.11;;;23.98;29.97
81990;BME280;71485;51.638;-0.182;2024-02-16T08:42:09;100243.34;;;24.78;29.88
81990;BME280;71485;51.638;-0.182;2024-02-16T08:44:34;100244.37;;;24.59;29.85
81990;BME280;71485;51.638;-0.182;2024-02-16T08:47:01;100250.62;;;24.86;29.84
81990;BME280;71485;51.638;-0.182;2024-02-16T08:49:26;100253.60;;;24.65;29.80
81990;BME280;71485;51.638;-0.182;2024-02-16T08:51:51;100256.01;;;24.68;29.80
81990;BME280;71485;51.638;-0.182;2024-02-16T08:54:17;100259.88;;;24.94;29.79
81990;BME280;71485;51.638;-0.182;2024-02-16T08:56:42;100265.43;;;24.26;29.76
81990;BME280;71485;51.638;-0.182;2024-02-16T08:59:08;100271.00;;;24.51;29.76
81990;BME280;71485;51.638;-0.182;2024-02-16T09:01:34;100273.19;;;24.76;29.76
81990;BME280;71485;51.638;-0.182;2024-02-16T09:04:00;100272.16;;;24.77;29.79
81990;BME280;71485;51.638;-0.182;2024-02-16T09:06:25;100276.94;;;25.06;29.73
81990;BME280;71485;51.638;-0.182;2024-02-16T09:08:51;100281.27;;;24.81;29.77
81990;BME280;71485;51.638;-0.182;2024-02-16T09:11:17;100288.09;;;24.52;29.93
81990;BME280;71485;51.638;-0.182;2024-02-16T09:13:41;100295.18;;;24.62;30.05
81990;BME280;71485;51.638;-0.182;2024-02-16T09:16:07;100298.86;;;24.88;30.09
81990;BME280;71485;51.638;-0.182;2024-02-16T09:18:33;100304.68;;;24.84;30.06
81990;BME280;71485;51.638;-0.182;2024-02-16T09:21:01;100312.69;;;24.86;30.07
81990;BME280;71485;51.638;-0.182;2024-02-16T09:23:24;100314.53;;;24.68;30.41
81990;BME280;71485;51.638;-0.182;2024-02-16T09:25:51;100321.28;;;24.77;30.33
81990;BME280;71485;51.638;-0.182;2024-02-16T09:28:16;100326.21;;;24.91;30.13
81990;BME280;71485;51.638;-0.182;2024-02-16T09:30:41;100333.46;;;24.55;30.31
81990;BME280;71485;51.638;-0.182;2024-02-16T09:33:07;100337.93;;;24.69;30.49
81990;BME280;71485;51.638;-0.182;2024-02-16T09:35:32;100341.69;;;24.45;30.59
81990;BME280;71485;51.638;-0.182;2024-02-16T09:37:58;100345.44;;;24.71;30.79
81990;BME280;71485;51.638;-0.182;2024-02-16T09:40:29;100349.81;;;25.23;31.07
81990;BME280;71485;51.638;-0.182;2024-02-16T09:42:51;100354.04;;;24.76;31.25
81990;BME280;71485;51.638;-0.182;2024-02-16T09:45:15;100356.11;;;24.79;31.24
81990;BME280;71485;51.638;-0.182;2024-02-16T09:47:55;100357.65;;;24.46;32.25
81990;BME280;71485;51.638;-0.182;2024-02-16T09:50:07;100362.72;;;24.73;32.55
81990;BME280;71485;51.638;-0.182;2024-02-16T09:55:00;100368.15;;;24.81;32.64
81990;BME280;71485;51.638;-0.182;2024-02-16T09:57:21;100365.57;;;24.86;32.71
81990;BME280;71485;51.638;-0.182;2024-02-16T09:59:46;100380.14;;;24.94;32.72
81990;BME280;71485;51.638;-0.182;2024-02-16T10:02:18;100387.27;;;25.00;32.79
81990;BME280;71485;51.638;-0.182;2024-02-16T10:04:38;100395.46;;;25.05;32.76
81990;BME280;71485;51.638;-0.182;2024-02-16T10:07:08;100401.92;;;25.10;32.55
81990;BME280;71485;51.638;-0.182;2024-02-16T10:09:29;100408.69;;;25.12;32.37
81990;BME280;71485;51.638;-0.182;2024-02-16T10:11:55;100415.69;;;25.14;32.23
81990;BME280;71485;51.638;-0.182;2024-02-16T10:14:20;100417.81;;;25.17;32.04
81990;BME280;71485;51.638;-0.182;2024-02-16T10:16:45;100424.97;;;24.93;31.90
81990;BME280;71485;51.638;-0.182;2024-02-16T10:19:11;100426.94;;;24.99;31.58
81990;BME280;71485;51.638;-0.182;2024-02-16T10:21:37;100434.48;;;25.25;31.44
81990;BME280;71485;51.638;-0.182;2024-02-16T10:24:06;100436.82;;;25.27;31.32
81990;BME280;71485;51.638;-0.182;2024-02-16T10:26:28;100439.07;;;25.07;31.12
81990;BME280;71485;51.638;-0.182;2024-02-16T10:28:55;100442.32;;;25.31;31.04
81990;BME280;71485;51.638;-0.182;2024-02-16T10:31:19;100445.65;;;25.11;30.93
81990;BME280;71485;51.638;-0.182;2024-02-16T10:33:45;100446.84;;;25.12;30.87
81990;BME280;71485;51.638;-0.182;2024-02-16T10:36:12;100448.89;;;25.36;30.83
81990;BME280;71485;51.638;-0.182;2024-02-16T10:38:37;100454.10;;;25.35;30.79
81990;BME280;71485;51.638;-0.182;2024-02-16T10:41:01;100457.52;;;25.35;30.79
81990;BME280;71485;51.638;-0.182;2024-02-16T10:43:27;100462.90;;;25.13;30.72
81990;BME280;71485;51.638;-0.182;2024-02-16T10:45:52;100465.33;;;25.38;30.73
81990;BME280;71485;51.638;-0.182;2024-02-16T10:48:18;100468.09;;;25.16;30.70
81990;BME280;71485;51.638;-0.182;2024-02-16T10:50:44;100467.50;;;24.95;30.71
81990;BME280;71485;51.638;-0.182;2024-02-16T10:53:14;100473.31;;;25.19;30.65
81990;BME280;71485;51.638;-0.182;2024-02-16T10:55:34;100476.20;;;25.45;30.59
81990;BME280;71485;51.638;-0.182;2024-02-16T10:58:00;100481.85;;;25.23;30.59
81990;BME280;71485;51.638;-0.182;2024-02-16T11:00:25;100486.47;;;25.46;30.64
81990;BME280;71485;51.638;-0.182;2024-02-16T11:02:53;100487.52;;;25.21;30.64
81990;BME280;71485;51.638;-0.182;2024-02-16T11:05:18;100490.73;;;25.48;30.65
81990;BME280;71485;51.638;-0.182;2024-02-16T11:07:43;100495.33;;;24.80;30.65
81990;BME280;71485;51.638;-0.182;2024-02-16T11:10:12;100500.02;;;25.55;30.60
81990;BME280;71485;51.638;-0.182;2024-02-16T11:12:34;100505.81;;;25.31;30.63
81990;BME280;71485;51.638;-0.182;2024-02-16T11:14:58;100507.49;;;25.34;30.63
81990;BME280;71485;51.638;-0.182;2024-02-16T11:17:24;100506.96;;;25.61;30.62
81990;BME280;71485;51.638;-0.182;2024-02-16T11:19:50;100510.70;;;25.39;30.63
81990;BME280;71485;51.638;-0.182;2024-02-16T11:22:16;100512.96;;;25.65;30.58
81990;BME280;71485;51.638;-0.182;2024-02-16T11:24:46;100518.94;;;24.94;30.54
81990;BME280;71485;51.638;-0.182;2024-02-16T11:27:10;100516.21;;;25.43;30.55
81990;BME280;71485;51.638;-0.182;2024-02-16T11:29:32;100521.05;;;25.67;30.53
81990;BME280;71485;51.638;-0.182;2024-02-16T11:31:58;100519.44;;;25.42;30.54
81990;BME280;71485;51.638;-0.182;2024-02-16T11:34:23;100523.67;;;25.71;30.53
81990;BME280;71485;51.638;-0.182;2024-02-16T11:36:48;100529.38;;;25.51;30.50
81990;BME280;71485;51.638;-0.182;2024-02-16T11:39:19;100527.49;;;25.51;30.56
81990;BME280;71485;51.638;-0.182;2024-02-16T11:41:40;100535.78;;;25.30;30.58
81990;BME280;71485;51.638;-0.182;2024-02-16T11:44:05;100530.80;;;25.81;30.56
81990;BME280;71485;51.638;-0.182;2024-02-16T11:46:30;100530.76;;;25.81;30.57
81990;BME280;71485;51.638;-0.182;2024-02-16T11:49:04;100533.49;;;25.36;30.54
81990;BME280;71485;51.638;-0.182;2024-02-16T11:51:22;100533.97;;;25.38;30.55
81990;BME280;71485;51.638;-0.182;2024-02-16T11:53:55;100538.94;;;25.39;30.57
81990;BME280;71485;51.638;-0.182;2024-02-16T11:56:21;100537.37;;;25.68;30.74
81990;BME280;71485;51.638;-0.182;2024-02-16T11:58:39;100540.27;;;25.72;31.38
81990;BME280;71485;51.638;-0.182;2024-02-16T12:01:10;100543.96;;;25.75;31.78
81990;BME280;71485;51.638;-0.182;2024-02-16T12:03:30;100542.93;;;25.54;31.90
81990;BME280;71485;51.638;-0.182;2024-02-16T12:05:56;100546.15;;;26.04;31.83
81990;BME280;71485;51.638;-0.182;2024-02-16T12:08:21;100547.79;;;25.57;31.79
81990;BME280;71485;51.638;-0.182;2024-02-16T12:10:52;100546.57;;;25.57;31.62
81990;BME280;71485;51.638;-0.182;2024-02-16T12:13:11;100549.27;;;25.89;31.38
81990;BME280;71485;51.638;-0.182;2024-02-16T12:15:38;100546.27;;;25.93;31.09
81990;BME280;71485;51.638;-0.182;2024-02-16T12:18:03;100545.20;;;25.71;30.95
81990;BME280;71485;51.638;-0.182;2024-02-16T12:20:30;100549.11;;;25.75;30.89
81990;BME280;71485;51.638;-0.182;2024-02-16T12:22:55;100549.69;;;26.03;30.78
81990;BME280;71485;51.638;-0.182;2024-02-16T12:25:26;100552.37;;;25.83;30.67
81990;BME280;71485;51.638;-0.182;2024-02-16T12:27:45;100551.53;;;25.84;30.62
81990;BME280;71485;51.638;-0.182;2024-02-16T12:30:11;100551.86;;;25.86;30.57
81990;BME280;71485;51.638;-0.182;2024-02-16T12:32:36;100556.22;;;25.89;30.56
81990;BME280;71485;51.638;-0.182;2024-02-16T12:35:01;100555.84;;;25.92;30.51
81990;BME280;71485;51.638;-0.182;2024-02-16T12:37:28;100558.67;;;26.40;30.48